Time;durP1;ratioP1;P1;durP2;ratioP2;P2;SDS_P1;SDS_P2;PMS_P1;PMS_P2;Temp;Humidity;BMP_temperature;BMP_pressure;BME280_temperature;BME280_humidity;BME280_pressure;Samples;Min_cycle;Max_cycle;Signal;HPM_P1;HPM_P2
2022/02/20 00:00:12;;;;;;;12.55;2.38;;;;;;;6.23;100.00;100891.41;5268843;28;20035;-69
2022/02/20 00:02:43;;;;;;;10.68;2.10;;;;;;;6.17;100.00;100901.38;5269008;28;20486;-69
2022/02/20 00:05:15;;;;;;;6.38;1.60;;;;;;;6.16;100.00;100899.72;5267907;28;20029;-69
2022/02/20 00:07:46;;;;;;;8.85;1.60;;;;;;;6.12;100.00;100908.66;5268334;28;20024;-70
2022/02/20 00:10:17;;;;;;;7.60;1.80;;;;;;;6.15;100.00;100924.06;5268619;28;20021;-69
2022/02/20 00:12:49;;;;;;;10.20;1.80;;;;;;;6.19;100.00;100915.97;5267940;28;20028;-69
2022/02/20 00:15:20;;;;;;;9.23;1.73;;;;;;;6.13;100.00;100949.34;5267235;28;20077;-69
2022/02/20 00:17:54;;;;;;;8.93;2.33;;;;;;;6.09;100.00;100933.91;5262698;28;20548;-69
2022/02/20 00:20:26;;;;;;;8.40;2.08;;;;;;;6.08;100.00;100941.84;5265464;28;20032;-69
2022/02/20 00:23:00;;;;;;;7.60;1.52;;;;;;;6.05;100.00;100950.66;5268246;28;20382;-69
2022/02/20 00:25:34;;;;;;;8.75;2.25;;;;;;;6.00;100.00;100964.91;5268104;28;20028;-69
2022/02/20 00:28:05;;;;;;;9.48;1.83;;;;;;;6.04;100.00;100967.19;5267432;28;20039;-69
2022/02/20 00:30:36;;;;;;;14.45;2.20;;;;;;;6.03;100.00;100970.75;5271115;28;20020;-70
2022/02/20 00:33:08;;;;;;;8.68;1.52;;;;;;;6.03;100.00;100975.13;5273237;28;20119;-70
2022/02/20 00:35:40;;;;;;;12.23;1.50;;;;;;;6.05;100.00;100987.06;5273285;28;20021;-70
2022/02/20 00:38:12;;;;;;;10.88;1.75;;;;;;;5.91;100.00;100978.44;5272995;28;20043;-69
2022/02/20 00:40:43;;;;;;;7.00;1.73;;;;;;;6.01;100.00;101001.19;5275214;28;20260;-70
2022/02/20 00:43:15;;;;;;;8.18;1.35;;;;;;;5.96;100.00;100998.06;5275725;28;20027;-70
2022/02/20 00:45:47;;;;;;;10.82;1.70;;;;;;;5.97;100.00;100997.13;5272664;28;20078;-70
2022/02/20 00:48:20;;;;;;;6.35;1.45;;;;;;;5.96;100.00;101008.47;5275460;28;20036;-71
2022/02/20 00:50:52;;;;;;;10.00;2.10;;;;;;;5.89;100.00;101027.94;5276158;28;20031;-70
2022/02/20 00:53:26;;;;;;;7.10;1.80;;;;;;;5.97;100.00;101017.94;5274602;28;20029;-70
2022/02/20 00:55:57;;;;;;;7.65;1.65;;;;;;;5.96;100.00;101020.63;5274336;28;20523;-70
2022/02/20 00:58:28;;;;;;;8.55;1.55;;;;;;;5.98;100.00;101026.56;5275230;28;20024;-70
2022/02/20 01:01:00;;;;;;;10.00;1.42;;;;;;;5.93;100.00;101020.81;5275177;28;20032;-70
2022/02/20 01:03:32;;;;;;;9.25;1.60;;;;;;;6.00;100.00;101030.75;5274853;28;20086;-70
2022/02/20 01:06:03;;;;;;;10.15;1.80;;;;;;;6.00;100.00;101032.53;5275121;28;20032;-70
2022/02/20 01:08:35;;;;;;;6.75;1.23;;;;;;;5.92;100.00;101040.81;5274502;28;20762;-70
2022/02/20 01:11:06;;;;;;;6.75;1.38;;;;;;;5.92;100.00;101037.34;5274514;28;20028;-70
2022/02/20 01:13:37;;;;;;;8.18;1.40;;;;;;;5.94;100.00;101051.09;5275044;28;20028;-70
2022/02/20 01:16:09;;;;;;;3.80;1.10;;;;;;;5.89;100.00;101043.56;5273773;28;20024;-70
2022/02/20 01:18:41;;;;;;;8.27;1.77;;;;;;;5.90;100.00;101050.41;5273401;28;20519;-69
2022/02/20 01:21:12;;;;;;;9.93;1.40;;;;;;;5.90;100.00;101050.41;5274048;28;20386;-69
2022/02/20 01:23:43;;;;;;;8.88;1.58;;;;;;;5.90;100.00;101047.81;5275405;28;20536;-70
2022/02/20 01:26:14;;;;;;;6.85;1.40;;;;;;;5.82;100.00;101043.09;5274537;28;20413;-70
2022/02/20 01:28:46;;;;;;;8.82;1.85;;;;;;;5.87;100.00;101055.78;5274486;28;20036;-71
2022/02/20 01:31:17;;;;;;;14.20;1.80;;;;;;;5.81;100.00;101051.81;5274268;28;20314;-70
2022/02/20 01:33:48;;;;;;;8.68;1.45;;;;;;;5.82;100.00;101056.09;5273115;28;20513;-69
2022/02/20 01:36:20;;;;;;;8.35;1.55;;;;;;;5.80;100.00;101062.34;5274732;28;20077;-70
2022/02/20 01:38:51;;;;;;;9.95;1.65;;;;;;;5.78;100.00;101069.38;5275186;28;20377;-69
2022/02/20 01:41:22;;;;;;;7.55;1.60;;;;;;;5.69;100.00;101055.19;5274361;28;20385;-70
2022/02/20 01:43:54;;;;;;;6.30;1.48;;;;;;;5.74;100.00;101075.69;5274235;28;20046;-70
2022/02/20 01:46:25;;;;;;;7.75;1.73;;;;;;;5.69;100.00;101078.56;5274714;28;20024;-70
2022/02/20 01:48:57;;;;;;;4.65;1.10;;;;;;;5.73;100.00;101085.25;5275026;28;20505;-69
2022/02/20 01:51:28;;;;;;;7.32;1.50;;;;;;;5.79;100.00;101102.22;5273547;28;20029;-69
2022/02/20 01:53:59;;;;;;;8.13;1.38;;;;;;;5.79;100.00;101107.44;5274373;28;20052;-69
2022/02/20 01:56:30;;;;;;;7.90;1.83;;;;;;;5.66;100.00;101094.34;5273452;28;20028;-70
2022/02/20 01:59:03;;;;;;;8.00;1.23;;;;;;;5.68;100.00;101099.44;5274371;28;20542;-70
2022/02/20 02:01:34;;;;;;;6.63;1.33;;;;;;;5.75;100.00;101098.97;5273364;28;20029;-70
2022/02/20 02:04:06;;;;;;;8.05;1.30;;;;;;;5.69;100.00;101088.97;5273838;28;20031;-70
2022/02/20 02:06:37;;;;;;;7.13;1.08;;;;;;;5.74;100.00;101088.69;5274400;28;20086;-70
2022/02/20 02:09:08;;;;;;;8.52;1.75;;;;;;;5.72;100.00;101091.41;5273565;28;20348;-70
2022/02/20 02:11:41;;;;;;;10.32;1.80;;;;;;;5.71;100.00;101087.09;5274003;28;20016;-70
2022/02/20 02:14:12;;;;;;;5.95;1.10;;;;;;;5.68;100.00;101076.06;5274637;28;20482;-70
2022/02/20 02:16:44;;;;;;;5.13;1.05;;;;;;;5.71;100.00;101081.06;5273170;28;20111;-70
2022/02/20 02:19:15;;;;;;;8.43;1.63;;;;;;;5.65;100.00;101087.50;5274104;28;20117;-69
2022/02/20 02:21:46;;;;;;;5.60;1.00;;;;;;;5.66;100.00;101093.53;5274814;28;20053;-70
2022/02/20 02:24:17;;;;;;;4.80;1.20;;;;;;;5.66;100.00;101093.53;5278180;28;20524;-69
2022/02/20 02:26:49;;;;;;;6.95;1.13;;;;;;;5.67;100.00;101084.78;5277945;28;20032;-70
2022/02/20 02:29:20;;;;;;;5.97;1.30;;;;;;;5.62;100.00;101079.88;5277859;28;20066;-70
2022/02/20 02:31:51;;;;;;;6.05;1.48;;;;;;;5.65;100.00;101082.28;5277890;28;20036;-70
2022/02/20 02:34:23;;;;;;;5.53;1.65;;;;;;;5.68;100.00;101078.66;5278935;28;20028;-69
2022/02/20 02:36:54;;;;;;;9.70;2.10;;;;;;;5.67;100.00;101089.97;5273936;28;20028;-70
2022/02/20 02:39:25;;;;;;;5.78;1.08;;;;;;;5.60;100.00;101092.94;5278152;28;20024;-70
2022/02/20 02:41:56;;;;;;;5.28;1.10;;;;;;;5.61;100.00;101093.81;5277170;28;20071;-70
2022/02/20 02:44:28;;;;;;;6.55;1.42;;;;;;;5.56;100.00;101082.81;5277567;28;20032;-69
2022/02/20 02:46:59;;;;;;;8.38;1.60;;;;;;;5.51;100.00;101085.72;5276968;28;20420;-70
2022/02/20 02:49:31;;;;;;;7.85;1.20;;;;;;;5.52;100.00;101089.97;5277836;28;20043;-70
2022/02/20 02:52:03;;;;;;;12.13;1.38;;;;;;;5.51;100.00;101080.50;5276507;28;20037;-70
2022/02/20 02:54:34;;;;;;;5.60;1.23;;;;;;;5.49;100.00;101076.31;5276600;28;20033;-70
2022/02/20 02:57:06;;;;;;;6.13;1.20;;;;;;;5.44;100.00;101078.38;5278117;28;20023;-71
2022/02/20 02:59:37;;;;;;;6.93;1.30;;;;;;;5.43;100.00;101076.72;5276872;28;20090;-69
2022/02/20 03:02:08;;;;;;;8.15;1.70;;;;;;;5.42;100.00;101075.88;5275365;28;20023;-70
2022/02/20 03:04:40;;;;;;;10.80;1.50;;;;;;;5.39;100.00;101080.41;5274857;28;20028;-70
2022/02/20 03:07:13;;;;;;;5.47;1.20;;;;;;;5.34;100.00;101084.13;5274877;28;20025;-70
2022/02/20 03:09:44;;;;;;;8.20;1.83;;;;;;;5.25;100.00;101074.25;5277040;28;20052;-70
2022/02/20 03:12:16;;;;;;;8.70;2.08;;;;;;;5.26;100.00;101080.28;5277073;28;20409;-70
2022/02/20 03:14:47;;;;;;;9.57;1.92;;;;;;;5.21;100.00;101085.75;5275395;28;20456;-70
2022/02/20 03:17:18;;;;;;;7.10;2.53;;;;;;;5.13;100.00;101075.81;5277296;28;20429;-70
2022/02/20 03:19:50;;;;;;;9.40;2.95;;;;;;;5.07;100.00;101081.34;5286448;28;20481;-70
2022/02/20 03:22:21;;;;;;;7.80;2.70;;;;;;;5.01;100.00;101081.72;5277342;28;20090;-70
2022/02/20 03:24:52;;;;;;;10.30;2.90;;;;;;;5.03;100.00;101079.88;5275336;28;20027;-70
2022/02/20 03:27:23;;;;;;;11.32;3.65;;;;;;;5.02;100.00;101067.81;5276915;28;20130;-70
2022/02/20 03:29:55;;;;;;;8.98;3.88;;;;;;;4.98;100.00;101066.31;5277442;28;20367;-69
2022/02/20 03:32:26;;;;;;;7.47;4.20;;;;;;;4.96;100.00;101073.34;5276720;28;20036;-70
2022/02/20 03:34:59;;;;;;;13.25;5.75;;;;;;;4.94;100.00;101059.63;5275507;28;20025;-70
2022/02/20 03:37:31;;;;;;;10.32;5.55;;;;;;;4.92;100.00;101043.28;5276019;28;20029;-71
2022/02/20 03:40:03;;;;;;;9.65;5.25;;;;;;;4.92;100.00;101035.50;5276618;28;20029;-69
2022/02/20 03:42:34;;;;;;;7.25;4.65;;;;;;;4.89;100.00;101022.72;5276830;28;20043;-69
2022/02/20 03:45:07;;;;;;;10.50;5.00;;;;;;;4.92;100.00;101025.13;5275851;28;20020;-69
2022/02/20 03:47:39;;;;;;;9.95;5.30;;;;;;;4.88;100.00;101018.44;5276351;28;20071;-69
2022/02/20 03:50:10;;;;;;;9.20;5.38;;;;;;;4.86;100.00;101023.72;5277053;28;20359;-70
2022/02/20 03:52:42;;;;;;;9.50;5.80;;;;;;;4.84;100.00;101022.16;5276749;28;20108;-70
2022/02/20 03:55:15;;;;;;;11.45;5.53;;;;;;;4.83;100.00;101018.72;5275764;28;20565;-70
2022/02/20 03:57:46;;;;;;;9.23;5.82;;;;;;;4.79;100.00;101011.19;5275386;28;20413;-70
2022/02/20 04:00:20;;;;;;;10.43;5.85;;;;;;;4.83;100.00;101021.31;5275639;28;20033;-69
2022/02/20 04:02:52;;;;;;;10.02;5.65;;;;;;;4.80;100.00;101016.28;5276320;28;20656;-69
2022/02/20 04:05:23;;;;;;;10.68;6.05;;;;;;;4.82;100.00;101013.63;5276308;28;20107;-70
2022/02/20 04:07:54;;;;;;;9.30;5.05;;;;;;;4.82;100.00;101008.44;5275158;28;20032;-69
2022/02/20 04:10:26;;;;;;;10.65;6.20;;;;;;;4.76;100.00;101001.00;5276902;28;20023;-70
2022/02/20 04:12:57;;;;;;;11.88;5.63;;;;;;;4.81;100.00;101007.59;5275474;28;20032;-70
2022/02/20 04:15:28;;;;;;;9.30;5.88;;;;;;;4.83;100.00;101010.09;5275842;28;20029;-69
2022/02/20 04:17:59;;;;;;;8.65;5.93;;;;;;;4.83;100.00;100999.72;5274467;28;20035;-68
2022/02/20 04:20:31;;;;;;;13.65;7.07;;;;;;;4.81;100.00;101001.56;5276072;28;20090;-69
2022/02/20 04:23:02;;;;;;;9.68;6.72;;;;;;;4.83;100.00;100994.53;5275250;28;20497;-70
2022/02/20 04:25:33;;;;;;;13.75;7.55;;;;;;;4.83;100.00;100990.16;5275812;28;20032;-69
2022/02/20 04:28:05;;;;;;;13.43;6.55;;;;;;;4.83;100.00;100973.75;5274930;28;20059;-69
2022/02/20 04:30:36;;;;;;;12.95;7.50;;;;;;;4.83;100.00;100968.56;5276145;28;20094;-69
2022/02/20 04:33:07;;;;;;;11.50;6.97;;;;;;;4.83;100.00;100965.97;5275151;28;20021;-69
2022/02/20 04:35:39;;;;;;;13.60;6.95;;;;;;;4.83;100.00;100965.97;5275479;28;20032;-70
2022/02/20 04:38:10;;;;;;;8.38;6.18;;;;;;;4.83;100.00;100969.41;5274744;28;20032;-70
2022/02/20 04:40:41;;;;;;;9.77;6.78;;;;;;;4.82;100.00;100961.72;5276416;28;20072;-70
2022/02/20 04:43:13;;;;;;;12.98;6.90;;;;;;;4.84;100.00;100957.25;5274338;28;20020;-69
2022/02/20 04:45:44;;;;;;;9.70;6.55;;;;;;;4.85;100.00;100933.81;5274653;28;20026;-70
2022/02/20 04:48:15;;;;;;;13.18;6.45;;;;;;;4.90;100.00;100927.50;5275048;28;20078;-70
2022/02/20 04:50:47;;;;;;;9.82;6.80;;;;;;;4.87;100.00;100908.59;5278797;28;20024;-70
2022/02/20 04:53:18;;;;;;;15.07;6.72;;;;;;;4.97;100.00;100915.84;5274269;28;20508;-70
2022/02/20 04:55:49;;;;;;;10.43;6.30;;;;;;;4.98;100.00;100892.38;5274735;28;20194;-70
2022/02/20 04:58:20;;;;;;;11.07;6.00;;;;;;;5.01;100.00;100897.38;5273843;28;20029;-70
2022/02/20 05:00:52;;;;;;;12.38;7.30;;;;;;;5.00;100.00;100900.03;5272843;28;20063;-70
2022/02/20 05:03:23;;;;;;;15.32;6.68;;;;;;;5.05;100.00;100895.44;5273711;28;20032;-70
2022/02/20 05:05:54;;;;;;;11.98;6.18;;;;;;;5.04;100.00;100899.78;5273343;28;20109;-70
2022/02/20 05:08:26;;;;;;;10.45;6.03;;;;;;;5.02;100.00;100899.03;5296282;22;20121;-73
2022/02/20 05:10:57;;;;;;;14.90;5.65;;;;;;;5.04;100.00;100889.41;5257744;28;20064;-73
2022/02/20 05:13:28;;;;;;;17.17;6.05;;;;;;;5.07;100.00;100881.41;5259063;28;20044;-72
2022/02/20 05:16:00;;;;;;;15.65;6.28;;;;;;;5.11;100.00;100872.53;5263616;28;20033;-73
2022/02/20 05:18:31;;;;;;;17.02;6.10;;;;;;;5.12;100.00;100869.00;5262040;28;20053;-75
2022/02/20 05:21:02;;;;;;;14.30;5.70;;;;;;;5.15;100.00;100859.31;5263435;28;20025;-73
2022/02/20 05:23:33;;;;;;;10.25;5.22;;;;;;;5.16;100.00;100846.28;5266160;28;20028;-73
2022/02/20 05:26:05;;;;;;;15.07;5.97;;;;;;;5.21;100.00;100851.16;5259885;28;20111;-78
2022/02/20 05:28:36;;;;;;;15.05;5.50;;;;;;;5.26;100.00;100830.94;5264018;28;20443;-73
2022/02/20 05:31:08;;;;;;;14.57;6.25;;;;;;;5.26;100.00;100836.13;5265543;28;20111;-74
2022/02/20 05:33:39;;;;;;;19.50;6.00;;;;;;;5.32;100.00;100823.59;5266114;28;20025;-77
2022/02/20 05:36:11;;;;;;;21.90;6.25;;;;;;;5.35;100.00;100814.78;5261022;28;20032;-74
2022/02/20 05:38:42;;;;;;;19.35;6.07;;;;;;;5.39;100.00;100792.88;5265958;28;20032;-74
2022/02/20 05:41:13;;;;;;;19.83;6.18;;;;;;;5.43;100.00;100790.91;5262003;28;20127;-75
2022/02/20 05:43:44;;;;;;;21.75;6.07;;;;;;;5.50;100.00;100777.41;5265309;28;20257;-74
2022/02/20 05:46:16;;;;;;;19.10;5.95;;;;;;;5.49;100.00;100749.78;5261849;28;20024;-77
2022/02/20 05:48:47;;;;;;;23.48;6.82;;;;;;;5.56;100.00;100742.41;5261126;28;20028;-78
2022/02/20 05:51:18;;;;;;;24.58;6.00;;;;;;;5.55;100.00;100733.78;5264007;28;20070;-73
2022/02/20 05:53:50;;;;;;;23.23;6.28;;;;;;;5.60;100.00;100726.50;5265214;28;20130;-73
2022/02/20 05:56:21;;;;;;;27.75;5.93;;;;;;;5.68;100.00;100726.00;5266512;28;20089;-77
2022/02/20 05:58:52;;;;;;;21.92;6.20;;;;;;;5.71;100.00;100717.16;5267374;28;20024;-76
2022/02/20 06:01:23;;;;;;;27.33;6.38;;;;;;;5.76;100.00;100715.94;5269418;28;20020;-75
2022/02/20 06:03:55;;;;;;;31.05;6.47;;;;;;;5.85;100.00;100711.88;5263636;28;20036;-75
2022/02/20 06:06:32;;;;;;;23.58;5.85;;;;;;;5.93;100.00;100706.19;5266474;28;20031;-74
2022/02/20 06:09:03;;;;;;;25.77;6.10;;;;;;;5.95;100.00;100707.78;5264293;28;20617;-74
2022/02/20 06:11:35;;;;;;;25.33;5.82;;;;;;;6.05;100.00;100700.16;5266700;28;20120;-73
2022/02/20 06:14:06;;;;;;;29.98;5.65;;;;;;;6.08;100.00;100692.16;5265787;28;20028;-73
2022/02/20 06:16:37;;;;;;;32.63;5.97;;;;;;;6.22;100.00;100706.81;5265786;28;20433;-73
2022/02/20 06:19:09;;;;;;;34.17;5.72;;;;;;;6.33;100.00;100701.72;5266375;28;20507;-73
2022/02/20 06:21:40;;;;;;;38.22;6.53;;;;;;;6.43;100.00;100694.91;5267848;28;20028;-77
2022/02/20 06:24:11;;;;;;;38.10;5.55;;;;;;;6.50;100.00;100700.53;5268997;28;20036;-76
2022/02/20 06:26:42;;;;;;;34.40;5.95;;;;;;;6.56;100.00;100695.72;5266256;28;20029;-74
2022/02/20 06:29:14;;;;;;;38.22;5.97;;;;;;;6.69;100.00;100693.06;5264899;28;20024;-78
2022/02/20 06:31:45;;;;;;;29.77;6.70;;;;;;;6.71;100.00;100713.81;5265429;28;20025;-73
2022/02/20 06:34:17;;;;;;;41.35;6.32;;;;;;;6.83;100.00;100702.53;5271271;28;20170;-73
2022/02/20 06:36:48;;;;;;;25.48;5.78;;;;;;;6.89;100.00;100696.84;5263104;28;20039;-73
2022/02/20 06:39:20;;;;;;;34.55;5.93;;;;;;;6.95;100.00;100709.44;5264617;28;20056;-73
2022/02/20 06:41:51;;;;;;;30.88;5.80;;;;;;;6.98;100.00;100701.41;5270364;28;20036;-75
2022/02/20 06:44:22;;;;;;;34.03;5.85;;;;;;;7.13;100.00;100693.44;5263387;28;20264;-74
2022/02/20 06:46:53;;;;;;;29.20;5.28;;;;;;;7.17;100.00;100687.91;5264676;28;20074;-73
2022/02/20 06:49:25;;;;;;;32.75;5.10;;;;;;;7.29;100.00;100683.56;5265306;28;20032;-76
2022/02/20 06:51:56;;;;;;;33.42;5.45;;;;;;;7.39;100.00;100684.56;5266517;28;20350;-76
2022/02/20 06:54:27;;;;;;;24.73;4.35;;;;;;;7.46;100.00;100690.97;5261922;28;20028;-74
2022/02/20 06:56:59;;;;;;;22.35;4.90;;;;;;;7.54;100.00;100672.97;5267286;28;20737;-77
2022/02/20 06:59:30;;;;;;;22.42;4.65;;;;;;;7.65;100.00;100690.44;5264264;28;20465;-73
2022/02/20 07:02:01;;;;;;;26.35;3.80;;;;;;;7.71;100.00;100707.38;5264863;28;20444;-74
2022/02/20 07:04:33;;;;;;;15.88;3.30;;;;;;;7.76;100.00;100698.25;5264577;28;20021;-76
2022/02/20 07:07:04;;;;;;;20.38;4.32;;;;;;;7.88;100.00;100685.22;5269556;28;20029;-76
2022/02/20 07:09:36;;;;;;;16.10;3.83;;;;;;;7.91;100.00;100693.66;5263782;28;20044;-79
2022/02/20 07:12:07;;;;;;;17.23;3.60;;;;;;;8.03;100.00;100682.31;5260315;28;20029;-74
2022/02/20 07:14:38;;;;;;;10.00;2.78;;;;;;;8.08;100.00;100691.56;5259324;28;20029;-75
2022/02/20 07:17:10;;;;;;;12.98;3.55;;;;;;;8.15;100.00;100690.16;5261352;28;20036;-74
2022/02/20 07:19:41;;;;;;;13.98;3.65;;;;;;;8.09;100.00;100686.22;5263806;28;20027;-74
2022/02/20 07:22:12;;;;;;;16.92;4.32;;;;;;;8.23;100.00;100701.63;5262841;28;20131;-75
2022/02/20 07:24:43;;;;;;;15.30;3.30;;;;;;;8.27;100.00;100695.22;5265630;28;20028;-76
2022/02/20 07:27:15;;;;;;;15.43;3.67;;;;;;;8.32;100.00;100688.81;5266474;28;20036;-73
2022/02/20 07:29:46;;;;;;;12.85;3.53;;;;;;;8.39;100.00;100696.09;5265127;28;20029;-74
2022/02/20 07:32:17;;;;;;;16.65;4.28;;;;;;;8.34;100.00;100705.22;5256322;28;20699;-75
2022/02/20 07:34:48;;;;;;;14.95;3.15;;;;;;;8.42;100.00;100698.47;5259891;28;20033;-77
2022/02/20 07:37:20;;;;;;;14.38;3.88;;;;;;;8.47;100.00;100698.09;5262937;28;20476;-73
2022/02/20 07:39:51;;;;;;;19.20;3.95;;;;;;;8.40;100.00;100686.47;5263260;28;20028;-73
2022/02/20 07:42:23;;;;;;;15.63;4.28;;;;;;;8.50;100.00;100680.41;5263370;28;20021;-76
2022/02/20 07:44:54;;;;;;;13.85;3.78;;;;;;;8.57;100.00;100691.22;5262939;28;20532;-76
2022/02/20 07:47:26;;;;;;;15.68;3.92;;;;;;;8.58;100.00;100690.25;5263188;28;20054;-74
2022/02/20 07:49:57;;;;;;;12.40;3.15;;;;;;;8.62;100.00;100688.22;5267364;28;20762;-73
2022/02/20 07:52:30;;;;;;;12.05;3.35;;;;;;;8.65;100.00;100690.59;5267391;28;20025;-76
2022/02/20 07:55:02;;;;;;;12.10;3.22;;;;;;;8.65;100.00;100696.66;5262883;28;20032;-73
2022/02/20 07:57:33;;;;;;;10.27;2.88;;;;;;;8.65;100.00;100683.59;5258528;28;20402;-74
2022/02/20 08:00:05;;;;;;;11.13;3.17;;;;;;;8.64;100.00;100676.72;5257125;28;20027;-78
2022/02/20 08:02:37;;;;;;;10.40;3.33;;;;;;;8.68;100.00;100680.75;5259763;28;20032;-73
2022/02/20 08:05:09;;;;;;;10.93;3.13;;;;;;;8.72;100.00;100663.06;5265305;28;20465;-76
2022/02/20 08:07:40;;;;;;;16.02;3.10;;;;;;;8.76;100.00;100667.91;5263345;28;20032;-74
2022/02/20 08:10:12;;;;;;;9.68;2.50;;;;;;;8.75;100.00;100666.25;5265089;28;20044;-76
2022/02/20 08:12:43;;;;;;;10.60;2.80;;;;;;;8.78;100.00;100673.81;5263836;28;20029;-76
2022/02/20 08:15:15;;;;;;;9.70;2.83;;;;;;;8.79;100.00;100664.22;5264573;28;20023;-75
2022/02/20 08:17:48;;;;;;;9.10;2.75;;;;;;;8.86;100.00;100670.59;5263622;28;20036;-75
2022/02/20 08:20:19;;;;;;;;;;;;;;;9.16;100.00;100675.13;5262489;28;20371;-74
2022/02/20 08:22:50;;;;;;;11.43;3.00;;;;;;;8.88;100.00;100681.75;5265975;28;19927;-75
2022/02/20 08:25:22;;;;;;;8.70;2.50;;;;;;;8.93;100.00;100682.22;5264120;28;20740;-74
2022/02/20 08:27:54;;;;;;;7.88;2.67;;;;;;;8.94;100.00;100656.91;5258243;28;20025;-75
2022/02/20 08:30:26;;;;;;;10.00;2.63;;;;;;;9.04;100.00;100657.00;5251024;28;20940;-73
2022/02/20 08:32:57;;;;;;;7.28;2.80;;;;;;;9.05;100.00;100649.03;5259520;28;20081;-73
2022/02/20 08:35:29;;;;;;;9.10;2.50;;;;;;;9.09;100.00;100658.31;5262877;28;20778;-76
2022/02/20 08:38:02;;;;;;;10.27;3.22;;;;;;;9.09;100.00;100667.91;5261919;28;20036;-74
2022/02/20 08:40:34;;;;;;;7.35;2.42;;;;;;;9.06;100.00;100649.88;5252473;28;20033;-74
2022/02/20 08:43:05;;;;;;;7.20;2.70;;;;;;;9.11;100.00;100659.00;5258900;28;20024;-74
2022/02/20 08:45:37;;;;;;;7.93;2.72;;;;;;;9.14;100.00;100650.09;5258386;28;20065;-76
2022/02/20 08:48:08;;;;;;;11.30;2.72;;;;;;;9.15;100.00;100657.78;5253385;28;20039;-74
2022/02/20 08:50:41;;;;;;;9.18;2.95;;;;;;;9.16;100.00;100669.06;5254265;28;20117;-78
2022/02/20 08:53:13;;;;;;;9.65;3.00;;;;;;;9.15;100.00;100665.63;5265207;28;20107;-74
2022/02/20 08:55:44;;;;;;;10.23;3.33;;;;;;;9.32;100.00;100661.66;5259889;28;20115;-74
2022/02/20 08:58:16;;;;;;;10.65;3.45;;;;;;;9.34;100.00;100656.28;5259146;28;20028;-75
2022/02/20 09:00:47;;;;;;;13.77;4.05;;;;;;;9.34;100.00;100657.09;5255526;28;21086;-74
2022/02/20 09:03:18;;;;;;;10.00;2.95;;;;;;;9.40;100.00;100647.94;5264124;28;20056;-74
2022/02/20 09:05:49;;;;;;;12.40;4.10;;;;;;;9.44;100.00;100637.09;5258153;28;20050;-77
2022/02/20 09:08:21;;;;;;;15.75;3.85;;;;;;;9.45;100.00;100628.28;5259415;28;20678;-73
2022/02/20 09:10:52;;;;;;;12.93;3.90;;;;;;;9.52;100.00;100625.16;5254417;28;20080;-74
2022/02/20 09:13:23;;;;;;;13.88;3.90;;;;;;;9.56;100.00;100640.47;5251171;28;20198;-78
2022/02/20 09:15:55;;;;;;;12.88;4.50;;;;;;;9.55;100.00;100624.91;5251588;28;20028;-74
2022/02/20 09:18:26;;;;;;;14.27;4.18;;;;;;;9.63;100.00;100638.19;5255451;28;20595;-76
2022/02/20 09:20:57;;;;;;;14.05;4.30;;;;;;;9.68;100.00;100638.59;5253299;28;20502;-78
2022/02/20 09:23:29;;;;;;;14.88;4.43;;;;;;;9.78;100.00;100636.06;5254547;28;20055;-75
2022/02/20 09:26:00;;;;;;;17.02;4.47;;;;;;;9.75;100.00;100632.72;5259031;28;20116;-74
2022/02/20 09:28:32;;;;;;;16.65;4.60;;;;;;;9.80;100.00;100637.56;5245737;28;20029;-73
2022/02/20 09:31:03;;;;;;;15.27;5.13;;;;;;;9.89;100.00;100652.50;5261576;28;20083;-74
2022/02/20 09:33:34;;;;;;;16.38;4.15;;;;;;;9.90;100.00;100640.25;5258478;28;20060;-75
2022/02/20 09:36:07;;;;;;;14.38;4.45;;;;;;;9.91;100.00;100649.75;5257333;28;20031;-74
2022/02/20 09:38:38;;;;;;;16.38;4.63;;;;;;;9.97;100.00;100650.06;5259797;28;20523;-75
2022/02/20 09:41:11;;;;;;;11.45;3.47;;;;;;;9.97;100.00;100642.19;5259273;28;20028;-74
2022/02/20 09:43:43;;;;;;;19.95;4.72;;;;;;;10.04;100.00;100639.03;5261577;28;20061;-77
2022/02/20 09:46:15;;;;;;;17.67;4.18;;;;;;;10.02;100.00;100628.72;5265105;28;20123;-75
2022/02/20 09:48:53;;;;;;;17.92;3.53;;;;;;;10.10;100.00;100617.59;5251978;28;20028;-73
2022/02/20 09:51:26;;;;;;;17.10;3.97;;;;;;;10.07;100.00;100613.44;5262311;28;20017;-74
2022/02/20 09:53:58;;;;;;;16.65;3.55;;;;;;;10.16;100.00;100619.69;5261713;28;20175;-74
2022/02/20 09:56:31;;;;;;;16.45;4.50;;;;;;;10.10;100.00;100623.66;5261907;28;20516;-74
2022/02/20 09:59:02;;;;;;;15.48;4.15;;;;;;;10.19;100.00;100630.72;5254234;28;20062;-74
2022/02/20 10:01:33;;;;;;;19.48;4.35;;;;;;;10.16;100.00;100630.97;5260968;28;20139;-80
2022/02/20 10:04:12;;;;;;;18.92;4.03;;;;;;;10.27;100.00;100631.88;5260018;28;20055;-72
2022/02/20 10:06:48;;;;;;;18.08;4.10;;;;;;;10.27;100.00;100634.50;5262313;28;20021;-73
2022/02/20 10:09:20;;;;;;;18.20;5.00;;;;;;;10.19;100.00;100628.09;5258484;28;20044;-75
2022/02/20 10:11:52;;;;;;;22.00;4.32;;;;;;;10.28;100.00;100617.81;5261080;28;20328;-75
2022/02/20 10:14:23;;;;;;;19.67;4.70;;;;;;;10.21;100.00;100605.22;5262658;28;20527;-75
2022/02/20 10:16:54;;;;;;;19.85;4.40;;;;;;;10.31;100.00;100613.16;5258291;28;20025;-79
2022/02/20 10:19:26;;;;;;;23.23;4.85;;;;;;;10.22;100.00;100587.72;5263575;28;20032;-74
2022/02/20 10:21:57;;;;;;;20.85;4.57;;;;;;;10.30;100.00;100593.13;5260396;28;20029;-82
2022/02/20 10:24:28;;;;;;;24.80;4.53;;;;;;;10.34;100.00;100585.84;5264088;28;20470;-74
2022/02/20 10:27:08;;;;;;;19.83;4.47;;;;;;;10.46;100.00;100606.56;5263330;28;20020;-84
2022/02/20 10:29:39;;;;;;;22.00;5.50;;;;;;;10.38;100.00;100584.59;5260303;28;20153;-73
2022/02/20 10:32:20;;;;;;;24.58;5.15;;;;;;;10.46;100.00;100600.50;5261881;28;20036;-82
2022/02/20 10:34:51;;;;;;;23.83;5.68;;;;;;;10.42;100.00;100599.13;5260833;28;20397;-74
2022/02/20 10:37:31;;;;;;;18.55;4.40;;;;;;;10.48;100.00;100599.38;5261883;28;20040;-73
2022/02/20 10:40:22;;;;;;;23.20;5.70;;;;;;;10.58;100.00;100606.44;5254040;28;20021;-74
2022/02/20 10:42:56;;;;;;;24.42;4.82;;;;;;;10.50;100.00;100619.41;5254713;28;20524;-75
2022/02/20 10:45:36;;;;;;;26.30;4.75;;;;;;;10.48;100.00;100619.50;5251390;28;20039;-74
2022/02/20 10:48:17;;;;;;;22.48;4.88;;;;;;;10.47;100.00;100608.22;5259975;28;20110;-75
2022/02/20 10:50:58;;;;;;;24.25;5.13;;;;;;;10.43;100.00;100609.44;5259598;28;20033;-74
2022/02/20 10:53:32;;;;;;;22.70;5.18;;;;;;;10.45;100.00;100617.16;5256470;28;20040;-74
2022/02/20 10:56:04;;;;;;;21.75;5.28;;;;;;;10.44;100.00;100618.94;5260611;28;20554;-74
2022/02/20 10:58:41;;;;;;;19.67;5.05;;;;;;;10.46;100.00;100617.03;5266732;28;20036;-75
2022/02/20 11:01:39;;;;;;;18.85;5.07;;;;;;;10.60;100.00;100609.75;5259612;28;20020;-74
2022/02/20 11:04:11;;;;;;;23.60;5.07;;;;;;;10.39;100.00;100607.22;5261583;28;20477;-74
2022/02/20 11:06:50;;;;;;;24.13;4.90;;;;;;;10.44;100.00;100616.31;5262931;28;20031;-74
2022/02/20 11:09:21;;;;;;;19.67;4.93;;;;;;;10.42;100.00;100609.59;5279866;22;20590;-70
2022/02/20 11:11:53;;;;;;;29.00;5.60;;;;;;;10.45;100.00;100614.53;5269182;28;20140;-71
2022/02/20 11:14:26;;;;;;;23.20;4.90;;;;;;;10.40;100.00;100614.13;5274608;28;20552;-72
2022/02/20 11:16:58;;;;;;;22.40;4.72;;;;;;;10.47;100.00;100621.31;5275969;28;20032;-71
2022/02/20 11:19:32;;;;;;;21.90;5.30;;;;;;;10.42;100.00;100612.22;5275725;28;20464;-71
2022/02/20 11:22:04;;;;;;;18.83;4.70;;;;;;;10.42;100.00;100604.34;5275346;28;20100;-71
2022/02/20 11:24:37;;;;;;;21.65;5.82;;;;;;;10.43;100.00;100609.44;5276487;28;20113;-71
2022/02/20 11:27:13;;;;;;;20.17;5.53;;;;;;;10.45;100.00;100597.06;5274883;28;20032;-72
2022/02/20 11:29:45;;;;;;;20.13;5.07;;;;;;;10.43;100.00;100593.72;5274904;28;20393;-72
2022/02/20 11:32:18;;;;;;;25.45;5.03;;;;;;;10.39;100.00;100592.34;5275781;28;20033;-70
2022/02/20 11:34:50;;;;;;;;;;;;;;;10.74;100.00;100588.38;5277093;28;20025;-72
2022/02/20 11:37:22;;;;;;;24.05;5.00;;;;;;;10.30;100.00;100585.28;5273350;28;20404;-71
2022/02/20 11:40:12;;;;;;;21.70;5.18;;;;;;;10.42;100.00;100579.00;5275870;28;20035;-72